sensor_id;sensor_type;location;lat;lon;timestamp;pressure;altitude;pressure_sealevel;temperature;humidity
43119;BME280;28729;49.838;8.650;2022-09-21T00:02:24;100641.81;;;8.79;100.00
43119;BME280;28729;49.838;8.650;2022-09-21T00:06:29;100646.91;;;8.75;100.00
43119;BME280;28729;49.838;8.650;2022-09-21T00:10:31;100639.13;;;8.72;100.00
43119;BME280;28729;49.838;8.650;2022-09-21T00:14:32;100645.25;;;8.67;100.00
43119;BME280;28729;49.838;8.650;2022-09-21T00:18:35;100643.16;;;8.63;100.00
43119;BME280;28729;49.838;8.650;2022-09-21T00:22:36;100641.06;;;8.58;100.00
43119;BME280;28729;49.838;8.650;2022-09-21T00:26:38;100644.03;;;8.57;100.00
43119;BME280;28729;49.838;8.650;2022-09-21T00:30:40;100642.56;;;8.54;100.00
43119;BME280;28729;49.838;8.650;2022-09-21T00:34:42;100641.91;;;8.52;100.00
43119;BME280;28729;49.838;8.650;2022-09-21T00:38:47;100634.13;;;8.49;100.00
43119;BME280;28729;49.838;8.650;2022-09-21T00:42:49;100639.41;;;8.51;100.00
43119;BME280;28729;49.838;8.650;2022-09-21T00:46:52;100641.09;;;8.52;100.00
43119;BME280;28729;49.838;8.650;2022-09-21T00:50:58;100642.31;;;8.56;100.00
43119;BME280;28729;49.838;8.650;2022-09-21T00:55:12;100638.09;;;8.60;100.00
43119;BME280;28729;49.838;8.650;2022-09-21T00:59:17;100635.75;;;8.63;100.00
43119;BME280;28729;49.838;8.650;2022-09-21T01:03:22;100642.94;;;8.64;100.00
43119;BME280;28729;49.838;8.650;2022-09-21T01:07:26;100644.59;;;8.65;100.00
43119;BME280;28729;49.838;8.650;2022-09-21T01:11:49;100650.09;;;8.65;100.00
43119;BME280;28729;49.838;8.650;2022-09-21T01:24:35;100650.97;;;8.66;100.00
43119;BME280;28729;49.838;8.650;2022-09-21T01:29:05;100659.41;;;8.64;100.00
43119;BME280;28729;49.838;8.650;2022-09-21T01:37:51;100661.09;;;8.65;100.00
43119;BME280;28729;49.838;8.650;2022-09-21T01:41:55;100663.25;;;8.63;100.00
43119;BME280;28729;49.838;8.650;2022-09-21T01:46:00;100656.25;;;8.61;100.00
43119;BME280;28729;49.838;8.650;2022-09-21T01:50:06;100665.16;;;8.63;100.00
43119;BME280;28729;49.838;8.650;2022-09-21T01:54:13;100659.66;;;8.63;100.00
43119;BME280;28729;49.838;8.650;2022-09-21T01:58:29;100666.41;;;8.60;100.00
43119;BME280;28729;49.838;8.650;2022-09-21T02:06:44;100652.03;;;8.58;100.00
43119;BME280;28729;49.838;8.650;2022-09-21T02:10:49;100652.88;;;8.59;100.00
43119;BME280;28729;49.838;8.650;2022-09-21T02:14:52;100658.59;;;8.57;100.00
43119;BME280;28729;49.838;8.650;2022-09-21T02:19:30;100653.72;;;8.59;100.00
43119;BME280;28729;49.838;8.650;2022-09-21T02:23:43;100653.28;;;8.62;100.00
43119;BME280;28729;49.838;8.650;2022-09-21T02:28:03;100655.00;;;8.63;100.00
43119;BME280;28729;49.838;8.650;2022-09-21T02:32:50;100651.19;;;8.64;100.00
43119;BME280;28729;49.838;8.650;2022-09-21T02:37:07;100644.44;;;8.60;100.00
43119;BME280;28729;49.838;8.650;2022-09-21T02:45:37;100649.28;;;8.58;100.00
43119;BME280;28729;49.838;8.650;2022-09-21T02:49:46;100653.13;;;8.57;100.00
43119;BME280;28729;49.838;8.650;2022-09-21T02:53:49;100651.41;;;8.56;100.00
43119;BME280;28729;49.838;8.650;2022-09-21T02:57:54;100652.72;;;8.54;100.00
43119;BME280;28729;49.838;8.650;2022-09-21T03:01:56;100656.28;;;8.54;100.00
43119;BME280;28729;49.838;8.650;2022-09-21T03:05:58;100647.22;;;8.54;100.00
43119;BME280;28729;49.838;8.650;2022-09-21T03:10:00;100648.25;;;8.53;100.00
43119;BME280;28729;49.838;8.650;2022-09-21T03:14:02;100651.22;;;8.51;100.00
43119;BME280;28729;49.838;8.650;2022-09-21T03:18:08;100651.22;;;8.51;100.00
43119;BME280;28729;49.838;8.650;2022-09-21T03:22:13;100645.31;;;8.54;100.00
43119;BME280;28729;49.838;8.650;2022-09-21T03:26:14;100653.75;;;8.53;100.00
43119;BME280;28729;49.838;8.650;2022-09-21T03:30:16;100651.00;;;8.53;100.00
43119;BME280;28729;49.838;8.650;2022-09-21T03:34:17;100658.19;;;8.47;100.00
43119;BME280;28729;49.838;8.650;2022-09-21T03:38:19;100663.09;;;8.45;100.00
43119;BME280;28729;49.838;8.650;2022-09-21T03:42:22;100664.97;;;8.44;100.00
43119;BME280;28729;49.838;8.650;2022-09-21T03:46:23;100661.38;;;8.44;100.00
43119;BME280;28729;49.838;8.650;2022-09-21T03:50:26;100668.13;;;8.41;100.00
43119;BME280;28729;49.838;8.650;2022-09-21T03:54:29;100669.44;;;8.39;100.00
43119;BME280;28729;49.838;8.650;2022-09-21T03:58:30;100673.19;;;8.38;100.00
43119;BME280;28729;49.838;8.650;2022-09-21T04:02:35;100674.06;;;8.38;100.00
43119;BME280;28729;49.838;8.650;2022-09-21T04:06:37;100672.59;;;8.36;100.00
43119;BME280;28729;49.838;8.650;2022-09-21T04:10:39;100660.97;;;8.34;100.00
43119;BME280;28729;49.838;8.650;2022-09-21T04:14:43;100671.94;;;8.34;100.00
43119;BME280;28729;49.838;8.650;2022-09-21T04:18:45;100676.78;;;8.32;100.00
43119;BME280;28729;49.838;8.650;2022-09-21T04:22:50;100674.88;;;8.32;100.00
43119;BME280;28729;49.838;8.650;2022-09-21T04:26:53;100676.16;;;8.30;100.00
43119;BME280;28729;49.838;8.650;2022-09-21T04:30:54;100673.00;;;8.26;100.00
43119;BME280;28729;49.838;8.650;2022-09-21T04:34:56;100681.91;;;8.21;100.00
43119;BME280;28729;49.838;8.650;2022-09-21T04:39:01;100684.41;;;8.23;100.00
43119;BME280;28729;49.838;8.650;2022-09-21T04:43:02;100686.75;;;8.19;100.00
43119;BME280;28729;49.838;8.650;2022-09-21T04:47:04;100690.97;;;8.22;100.00
43119;BME280;28729;49.838;8.650;2022-09-21T04:51:07;100682.31;;;8.25;100.00
43119;BME280;28729;49.838;8.650;2022-09-21T04:55:09;100688.00;;;8.30;100.00
43119;BME280;28729;49.838;8.650;2022-09-21T04:59:10;100687.13;;;8.30;100.00
43119;BME280;28729;49.838;8.650;2022-09-21T05:03:12;100690.94;;;8.29;100.00
43119;BME280;28729;49.838;8.650;2022-09-21T05:07:14;100690.31;;;8.27;100.00
43119;BME280;28729;49.838;8.650;2022-09-21T05:11:17;100699.22;;;8.22;100.00
43119;BME280;28729;49.838;8.650;2022-09-21T05:15:19;100707.84;;;8.26;100.00
43119;BME280;28729;49.838;8.650;2022-09-21T05:19:22;100705.09;;;8.26;100.00
43119;BME280;28729;49.838;8.650;2022-09-21T05:23:25;100707.44;;;8.29;100.00
43119;BME280;28729;49.838;8.650;2022-09-21T05:27:26;100712.06;;;8.35;100.00
43119;BME280;28729;49.838;8.650;2022-09-21T05:31:42;100712.91;;;8.35;100.00
43119;BME280;28729;49.838;8.650;2022-09-21T05:36:21;100717.81;;;8.40;100.00
43119;BME280;28729;49.838;8.650;2022-09-21T05:40:30;100720.13;;;8.43;100.00
43119;BME280;28729;49.838;8.650;2022-09-21T05:44:32;100728.16;;;8.51;100.00
43119;BME280;28729;49.838;8.650;2022-09-21T05:48:40;100720.09;;;8.56;100.00
43119;BME280;28729;49.838;8.650;2022-09-21T05:53:01;100732.78;;;8.57;100.00
43119;BME280;28729;49.838;8.650;2022-09-21T05:57:26;100732.81;;;8.51;100.00
43119;BME280;28729;49.838;8.650;2022-09-21T06:06:07;100739.53;;;8.28;100.00
43119;BME280;28729;49.838;8.650;2022-09-21T06:10:11;100742.50;;;8.20;100.00
43119;BME280;28729;49.838;8.650;2022-09-21T06:14:13;100745.88;;;8.15;100.00
43119;BME280;28729;49.838;8.650;2022-09-21T06:18:15;100747.75;;;8.15;100.00
43119;BME280;28729;49.838;8.650;2022-09-21T06:22:18;100756.22;;;8.13;100.00
43119;BME280;28729;49.838;8.650;2022-09-21T06:26:20;100744.81;;;8.16;100.00
43119;BME280;28729;49.838;8.650;2022-09-21T06:30:21;100758.13;;;8.19;100.00
43119;BME280;28729;49.838;8.650;2022-09-21T06:34:23;100754.53;;;8.26;100.00
43119;BME280;28729;49.838;8.650;2022-09-21T06:38:26;100751.38;;;8.29;100.00
43119;BME280;28729;49.838;8.650;2022-09-21T06:42:28;100754.97;;;8.36;100.00
43119;BME280;28729;49.838;8.650;2022-09-21T06:46:30;100765.97;;;8.42;100.00
43119;BME280;28729;49.838;8.650;2022-09-21T06:50:32;100760.28;;;8.51;100.00
43119;BME280;28729;49.838;8.650;2022-09-21T06:54:33;100753.50;;;8.60;100.00
43119;BME280;28729;49.838;8.650;2022-09-21T06:58:35;100761.28;;;8.70;100.00
43119;BME280;28729;49.838;8.650;2022-09-21T07:02:42;100773.31;;;8.82;100.00
43119;BME280;28729;49.838;8.650;2022-09-21T07:06:43;100772.22;;;8.96;100.00
43119;BME280;28729;49.838;8.650;2022-09-21T07:10:45;100771.53;;;9.14;100.00
43119;BME280;28729;49.838;8.650;2022-09-21T07:14:47;100769.34;;;9.29;100.00
43119;BME280;28729;49.838;8.650;2022-09-21T07:18:48;100778.56;;;9.48;100.00
43119;BME280;28729;49.838;8.650;2022-09-21T07:22:50;100778.66;;;9.73;100.00
43119;BME280;28729;49.838;8.650;2022-09-21T07:26:52;100787.19;;;9.97;100.00
43119;BME280;28729;49.838;8.650;2022-09-21T07:30:54;100781.94;;;10.20;100.00
43119;BME280;28729;49.838;8.650;2022-09-21T07:34:56;100775.63;;;10.45;100.00
43119;BME280;28729;49.838;8.650;2022-09-21T07:38:58;100781.94;;;10.70;100.00
43119;BME280;28729;49.838;8.650;2022-09-21T07:43:00;100778.69;;;10.99;100.00
43119;BME280;28729;49.838;8.650;2022-09-21T07:47:05;100779.38;;;11.31;100.00
43119;BME280;28729;49.838;8.650;2022-09-21T07:51:09;100778.47;;;11.67;100.00
43119;BME280;28729;49.838;8.650;2022-09-21T07:55:12;100778.88;;;12.01;100.00
43119;BME280;28729;49.838;8.650;2022-09-21T07:59:14;100776.06;;;12.43;100.00
43119;BME280;28729;49.838;8.650;2022-09-21T08:03:15;100779.09;;;12.76;100.00
43119;BME280;28729;49.838;8.650;2022-09-21T08:07:17;100777.88;;;13.08;100.00
43119;BME280;28729;49.838;8.650;2022-09-21T08:11:21;100776.03;;;13.37;100.00
43119;BME280;28729;49.838;8.650;2022-09-21T08:15:23;100782.09;;;13.62;100.00
43119;BME280;28729;49.838;8.650;2022-09-21T08:19:45;100787.28;;;13.87;100.00
43119;BME280;28729;49.838;8.650;2022-09-21T08:23:47;100787.00;;;14.18;97.92
43119;BME280;28729;49.838;8.650;2022-09-21T08:27:49;100787.28;;;14.33;95.54
43119;BME280;28729;49.838;8.650;2022-09-21T08:31:51;100791.97;;;14.32;90.74
43119;BME280;28729;49.838;8.650;2022-09-21T08:35:55;100787.75;;;14.58;91.89
43119;BME280;28729;49.838;8.650;2022-09-21T08:39:57;100784.97;;;14.75;87.03
43119;BME280;28729;49.838;8.650;2022-09-21T08:44:06;100791.41;;;14.81;82.89
43119;BME280;28729;49.838;8.650;2022-09-21T08:48:18;100791.50;;;14.86;81.91
43119;BME280;28729;49.838;8.650;2022-09-21T08:52:28;100786.69;;;14.98;82.39
43119;BME280;28729;49.838;8.650;2022-09-21T08:56:31;100787.00;;;15.02;80.47
43119;BME280;28729;49.838;8.650;2022-09-21T09:09:53;100774.72;;;15.37;76.27
43119;BME280;28729;49.838;8.650;2022-09-21T09:15:03;100776.97;;;15.62;76.26
43119;BME280;28729;49.838;8.650;2022-09-21T09:18:52;100772.47;;;15.78;74.98
43119;BME280;28729;49.838;8.650;2022-09-21T09:23:10;100775.19;;;16.00;74.36
43119;BME280;28729;49.838;8.650;2022-09-21T09:27:18;100768.03;;;16.09;75.02
43119;BME280;28729;49.838;8.650;2022-09-21T09:31:26;100763.88;;;16.06;71.38
43119;BME280;28729;49.838;8.650;2022-09-21T09:35:41;100765.25;;;16.09;70.13
43119;BME280;28729;49.838;8.650;2022-09-21T09:39:52;100761.25;;;16.27;70.64
43119;BME280;28729;49.838;8.650;2022-09-21T09:52:25;100761.00;;;16.60;68.02
43119;BME280;28729;49.838;8.650;2022-09-21T09:56:27;100746.72;;;16.84;69.52
43119;BME280;28729;49.838;8.650;2022-09-21T10:00:29;100745.72;;;17.05;67.99
43119;BME280;28729;49.838;8.650;2022-09-21T10:04:31;100746.91;;;17.20;66.29
43119;BME280;28729;49.838;8.650;2022-09-21T10:08:44;100749.91;;;17.13;64.63
43119;BME280;28729;49.838;8.650;2022-09-21T10:12:50;100741.84;;;17.12;64.82
43119;BME280;28729;49.838;8.650;2022-09-21T10:16:54;100741.56;;;17.13;64.23
43119;BME280;28729;49.838;8.650;2022-09-21T10:20:59;100736.31;;;17.17;63.71
43119;BME280;28729;49.838;8.650;2022-09-21T10:25:03;100742.56;;;17.44;64.35
43119;BME280;28729;49.838;8.650;2022-09-21T10:33:20;100724.97;;;17.39;62.69
43119;BME280;28729;49.838;8.650;2022-09-21T10:37:30;100731.69;;;17.48;61.02
43119;BME280;28729;49.838;8.650;2022-09-21T10:41:36;100737.28;;;17.53;60.02
43119;BME280;28729;49.838;8.650;2022-09-21T10:45:37;100734.28;;;17.70;58.75
43119;BME280;28729;49.838;8.650;2022-09-21T10:49:55;100732.97;;;17.98;60.60
43119;BME280;28729;49.838;8.650;2022-09-21T10:53:57;100736.31;;;18.00;59.68
43119;BME280;28729;49.838;8.650;2022-09-21T10:57:59;100732.97;;;17.98;57.76
43119;BME280;28729;49.838;8.650;2022-09-21T11:06:29;100727.13;;;18.40;56.64
43119;BME280;28729;49.838;8.650;2022-09-21T11:10:42;100722.94;;;18.43;56.20
43119;BME280;28729;49.838;8.650;2022-09-21T11:19:23;100721.78;;;18.64;55.53
43119;BME280;28729;49.838;8.650;2022-09-21T11:23:48;100713.97;;;18.87;53.41
43119;BME280;28729;49.838;8.650;2022-09-21T11:28:00;100708.94;;;18.89;55.08
43119;BME280;28729;49.838;8.650;2022-09-21T11:36:28;100708.00;;;19.19;50.10
43119;BME280;28729;49.838;8.650;2022-09-21T11:44:58;100708.75;;;20.29;51.31
43119;BME280;28729;49.838;8.650;2022-09-21T11:49:32;100695.91;;;20.57;46.53
43119;BME280;28729;49.838;8.650;2022-09-21T11:54:04;100689.69;;;21.37;46.47
43119;BME280;28729;49.838;8.650;2022-09-21T11:58:15;100697.88;;;21.91;45.02
43119;BME280;28729;49.838;8.650;2022-09-21T12:11:12;100677.31;;;22.14;41.28
43119;BME280;28729;49.838;8.650;2022-09-21T12:19:40;100672.50;;;23.08;38.91
43119;BME280;28729;49.838;8.650;2022-09-21T12:23:51;100668.66;;;23.67;39.56
43119;BME280;28729;49.838;8.650;2022-09-21T12:28:29;100661.63;;;24.15;38.80
43119;BME280;28729;49.838;8.650;2022-09-21T12:32:49;100666.34;;;24.42;37.66
43119;BME280;28729;49.838;8.650;2022-09-21T12:37:07;100660.03;;;24.00;37.21
43119;BME280;28729;49.838;8.650;2022-09-21T12:41:19;100655.78;;;24.56;36.58
43119;BME280;28729;49.838;8.650;2022-09-21T12:45:53;100645.44;;;24.74;35.75
43119;BME280;28729;49.838;8.650;2022-09-21T12:50:02;100643.91;;;25.08;36.20
43119;BME280;28729;49.838;8.650;2022-09-21T12:54:13;100630.72;;;25.35;35.38
43119;BME280;28729;49.838;8.650;2022-09-21T13:02:38;100638.38;;;25.60;34.90
43119;BME280;28729;49.838;8.650;2022-09-21T13:10:59;100634.41;;;22.88;37.64
43119;BME280;28729;49.838;8.650;2022-09-21T13:15:12;100630.50;;;22.10;38.34
43119;BME280;28729;49.838;8.650;2022-09-21T13:19:25;100628.41;;;21.26;40.08
43119;BME280;28729;49.838;8.650;2022-09-21T13:23:36;100618.44;;;20.96;40.10
43119;BME280;28729;49.838;8.650;2022-09-21T13:28:05;100627.97;;;20.46;42.17
43119;BME280;28729;49.838;8.650;2022-09-21T13:36:33;100624.53;;;19.96;42.14
43119;BME280;28729;49.838;8.650;2022-09-21T13:40:35;100612.09;;;20.08;42.04
43119;BME280;28729;49.838;8.650;2022-09-21T13:44:42;100610.19;;;21.47;39.83
43119;BME280;28729;49.838;8.650;2022-09-21T13:48:51;100605.03;;;22.25;37.28
43119;BME280;28729;49.838;8.650;2022-09-21T13:53:05;100597.69;;;22.10;37.66
43119;BME280;28729;49.838;8.650;2022-09-21T13:57:25;100599.81;;;21.48;39.04
43119;BME280;28729;49.838;8.650;2022-09-21T14:01:31;100595.69;;;20.78;38.91
43119;BME280;28729;49.838;8.650;2022-09-21T14:05:52;100599.47;;;20.39;40.53
43119;BME280;28729;49.838;8.650;2022-09-21T14:09:58;100585.88;;;19.98;41.04
43119;BME280;28729;49.838;8.650;2022-09-21T14:30:35;100576.88;;;18.83;41.96
43119;BME280;28729;49.838;8.650;2022-09-21T14:34:38;100576.50;;;19.45;40.49
43119;BME280;28729;49.838;8.650;2022-09-21T14:38:49;100570.78;;;20.29;39.26
43119;BME280;28729;49.838;8.650;2022-09-21T14:42:58;100570.34;;;21.83;36.62
43119;BME280;28729;49.838;8.650;2022-09-21T14:47:43;100563.22;;;22.65;35.28
43119;BME280;28729;49.838;8.650;2022-09-21T15:00:23;100558.50;;;20.73;37.06
43119;BME280;28729;49.838;8.650;2022-09-21T15:17:56;100545.97;;;19.14;39.78
43119;BME280;28729;49.838;8.650;2022-09-21T15:22:18;100547.47;;;18.96;41.19
43119;BME280;28729;49.838;8.650;2022-09-21T15:26:24;100542.88;;;18.56;40.27
43119;BME280;28729;49.838;8.650;2022-09-21T15:30:30;100541.53;;;18.53;40.18
43119;BME280;28729;49.838;8.650;2022-09-21T15:34:33;100533.75;;;18.45;40.71
43119;BME280;28729;49.838;8.650;2022-09-21T15:38:35;100534.88;;;18.34;40.52
43119;BME280;28729;49.838;8.650;2022-09-21T15:42:56;100535.75;;;18.24;41.03
43119;BME280;28729;49.838;8.650;2022-09-21T15:47:02;100533.84;;;18.04;41.44
43119;BME280;28729;49.838;8.650;2022-09-21T15:51:13;100525.50;;;17.89;41.22
43119;BME280;28729;49.838;8.650;2022-09-21T15:55:19;100534.69;;;17.74;41.08
43119;BME280;28729;49.838;8.650;2022-09-21T15:59:22;100535.56;;;17.64;42.06
43119;BME280;28729;49.838;8.650;2022-09-21T16:03:24;100534.41;;;17.60;42.17
43119;BME280;28729;49.838;8.650;2022-09-21T16:07:34;100539.19;;;17.80;41.68
43119;BME280;28729;49.838;8.650;2022-09-21T16:11:36;100532.78;;;17.85;41.36
43119;BME280;28729;49.838;8.650;2022-09-21T16:15:39;100531.06;;;17.63;41.82
43119;BME280;28729;49.838;8.650;2022-09-21T16:20:17;100536.09;;;17.36;42.47
43119;BME280;28729;49.838;8.650;2022-09-21T16:24:21;100531.63;;;17.14;42.62
43119;BME280;28729;49.838;8.650;2022-09-21T16:28:37;100548.03;;;17.05;43.42
43119;BME280;28729;49.838;8.650;2022-09-21T16:32:39;100549.94;;;16.90;43.97
43119;BME280;28729;49.838;8.650;2022-09-21T16:36:42;100550.13;;;16.73;44.12
43119;BME280;28729;49.838;8.650;2022-09-21T16:40:45;100557.03;;;16.60;43.96
43119;BME280;28729;49.838;8.650;2022-09-21T16:44:47;100556.16;;;16.49;44.09
43119;BME280;28729;49.838;8.650;2022-09-21T16:48:49;100556.38;;;16.37;45.11
43119;BME280;28729;49.838;8.650;2022-09-21T16:52:50;100554.03;;;16.19;46.43
43119;BME280;28729;49.838;8.650;2022-09-21T16:56:55;100559.19;;;16.00;47.90
43119;BME280;28729;49.838;8.650;2022-09-21T17:00:57;100555.44;;;15.79;48.30
43119;BME280;28729;49.838;8.650;2022-09-21T17:05:01;100558.88;;;15.59;49.77
43119;BME280;28729;49.838;8.650;2022-09-21T17:09:14;100561.16;;;15.35;52.43
43119;BME280;28729;49.838;8.650;2022-09-21T17:13:21;100562.84;;;15.09;53.18
43119;BME280;28729;49.838;8.650;2022-09-21T17:17:24;100558.09;;;14.82;54.82
43119;BME280;28729;49.838;8.650;2022-09-21T17:21:25;100555.88;;;14.57;55.71
43119;BME280;28729;49.838;8.650;2022-09-21T17:25:28;100558.84;;;14.34;57.12
43119;BME280;28729;49.838;8.650;2022-09-21T17:29:30;100572.09;;;14.10;58.40
43119;BME280;28729;49.838;8.650;2022-09-21T17:33:32;100566.25;;;13.89;58.98
43119;BME280;28729;49.838;8.650;2022-09-21T17:37:34;100572.28;;;13.70;60.33
43119;BME280;28729;49.838;8.650;2022-09-21T17:41:58;100572.78;;;13.50;62.45
43119;BME280;28729;49.838;8.650;2022-09-21T17:46:04;100568.81;;;13.29;62.81
43119;BME280;28729;49.838;8.650;2022-09-21T17:54:16;100579.53;;;12.96;64.98
43119;BME280;28729;49.838;8.650;2022-09-21T17:58:43;100581.16;;;12.81;67.41
43119;BME280;28729;49.838;8.650;2022-09-21T18:02:47;100591.66;;;12.67;67.14
43119;BME280;28729;49.838;8.650;2022-09-21T18:06:49;100586.63;;;12.52;68.17
43119;BME280;28729;49.838;8.650;2022-09-21T18:11:13;100590.28;;;12.41;68.40
43119;BME280;28729;49.838;8.650;2022-09-21T18:15:35;100583.09;;;12.28;69.47
43119;BME280;28729;49.838;8.650;2022-09-21T18:20:02;100591.38;;;12.16;70.40
43119;BME280;28729;49.838;8.650;2022-09-21T18:36:45;100592.44;;;11.80;72.15
43119;BME280;28729;49.838;8.650;2022-09-21T18:45:32;100608.41;;;11.66;73.40
43119;BME280;28729;49.838;8.650;2022-09-21T18:49:58;100603.22;;;11.58;73.82
43119;BME280;28729;49.838;8.650;2022-09-21T18:54:03;100612.44;;;11.52;73.21
43119;BME280;28729;49.838;8.650;2022-09-21T18:58:05;100611.22;;;11.48;73.44
43119;BME280;28729;49.838;8.650;2022-09-21T19:02:14;100609.19;;;11.43;74.13
43119;BME280;28729;49.838;8.650;2022-09-21T19:11:13;100614.19;;;11.34;75.37
43119;BME280;28729;49.838;8.650;2022-09-21T19:20:11;100620.50;;;11.23;75.94
43119;BME280;28729;49.838;8.650;2022-09-21T19:24:40;100624.81;;;11.19;75.82
43119;BME280;28729;49.838;8.650;2022-09-21T19:32:51;100617.97;;;11.10;76.02
43119;BME280;28729;49.838;8.650;2022-09-21T19:37:00;100618.91;;;11.04;76.09
43119;BME280;28729;49.838;8.650;2022-09-21T19:41:30;100618.28;;;11.02;76.44
43119;BME280;28729;49.838;8.650;2022-09-21T19:45:54;100614.31;;;10.98;76.58
43119;BME280;28729;49.838;8.650;2022-09-21T19:50:18;100606.47;;;10.94;76.36
43119;BME280;28729;49.838;8.650;2022-09-21T19:54:24;100610.78;;;10.90;76.67
43119;BME280;28729;49.838;8.650;2022-09-21T19:58:45;100612.91;;;10.88;76.81
43119;BME280;28729;49.838;8.650;2022-09-21T20:03:14;100610.03;;;10.83;76.96
43119;BME280;28729;49.838;8.650;2022-09-21T20:11:37;100609.03;;;10.78;77.77
43119;BME280;28729;49.838;8.650;2022-09-21T20:20:24;100617.63;;;10.69;78.43
43119;BME280;28729;49.838;8.650;2022-09-21T20:24:30;100612.56;;;10.66;78.72
43119;BME280;28729;49.838;8.650;2022-09-21T20:28:34;100604.78;;;10.63;79.18
43119;BME280;28729;49.838;8.650;2022-09-21T20:32:38;100606.06;;;10.61;79.73
43119;BME280;28729;49.838;8.650;2022-09-21T20:36:41;100610.13;;;10.58;79.67
43119;BME280;28729;49.838;8.650;2022-09-21T20:40:43;100606.16;;;10.54;79.84
43119;BME280;28729;49.838;8.650;2022-09-21T20:44:45;100602.78;;;10.52;80.14
43119;BME280;28729;49.838;8.650;2022-09-21T20:48:47;100604.94;;;10.50;80.24
43119;BME280;28729;49.838;8.650;2022-09-21T20:52:48;100605.63;;;10.45;81.03
43119;BME280;28729;49.838;8.650;2022-09-21T20:56:50;100605.00;;;10.43;81.31
43119;BME280;28729;49.838;8.650;2022-09-21T21:00:52;100605.25;;;10.42;81.41
43119;BME280;28729;49.838;8.650;2022-09-21T21:04:59;100603.16;;;10.37;81.76
43119;BME280;28729;49.838;8.650;2022-09-21T21:09:01;100603.41;;;10.36;82.00
43119;BME280;28729;49.838;8.650;2022-09-21T21:13:03;100612.13;;;10.33;82.54
43119;BME280;28729;49.838;8.650;2022-09-21T21:17:05;100602.41;;;10.30;82.51
43119;BME280;28729;49.838;8.650;2022-09-21T21:21:07;100606.47;;;10.27;82.85
43119;BME280;28729;49.838;8.650;2022-09-21T21:25:09;100604.13;;;10.24;82.91
43119;BME280;28729;49.838;8.650;2022-09-21T21:29:11;100600.75;;;10.22;82.88
43119;BME280;28729;49.838;8.650;2022-09-21T21:33:12;100596.31;;;10.21;83.09
43119;BME280;28729;49.838;8.650;2022-09-21T21:37:15;100595.69;;;10.19;83.23
43119;BME280;28729;49.838;8.650;2022-09-21T21:41:16;100593.19;;;10.18;83.59
43119;BME280;28729;49.838;8.650;2022-09-21T21:45:18;100594.25;;;10.17;83.53
43119;BME280;28729;49.838;8.650;2022-09-21T21:49:22;100590.06;;;10.14;83.84
43119;BME280;28729;49.838;8.650;2022-09-21T21:53:24;100585.84;;;10.12;84.06
43119;BME280;28729;49.838;8.650;2022-09-21T21:57:27;100587.97;;;10.10;84.74
43119;BME280;28729;49.838;8.650;2022-09-21T22:01:29;100585.88;;;10.05;84.91
43119;BME280;28729;49.838;8.650;2022-09-21T22:05:33;100580.63;;;10.03;84.60
43119;BME280;28729;49.838;8.650;2022-09-21T22:09:34;100589.09;;;10.02;85.12
43119;BME280;28729;49.838;8.650;2022-09-21T22:13:38;100585.97;;;9.98;85.53
43119;BME280;28729;49.838;8.650;2022-09-21T22:17:40;100585.97;;;9.98;85.71
43119;BME280;28729;49.838;8.650;2022-09-21T22:21:43;100577.94;;;9.97;85.74
43119;BME280;28729;49.838;8.650;2022-09-21T22:26:02;100586.41;;;9.95;85.58
43119;BME280;28729;49.838;8.650;2022-09-21T22:30:04;100577.31;;;9.95;85.91
43119;BME280;28729;49.838;8.650;2022-09-21T22:34:07;100579.22;;;9.94;85.69
43119;BME280;28729;49.838;8.650;2022-09-21T22:38:09;100574.31;;;9.96;86.11
43119;BME280;28729;49.838;8.650;2022-09-21T22:42:12;100584.75;;;9.94;86.43
43119;BME280;28729;49.838;8.650;2022-09-21T22:46:14;100578.16;;;9.95;86.71
43119;BME280;28729;49.838;8.650;2022-09-21T22:50:19;100580.69;;;9.97;86.49
43119;BME280;28729;49.838;8.650;2022-09-21T22:54:20;100580.44;;;9.98;86.55
43119;BME280;28729;49.838;8.650;2022-09-21T22:58:22;100581.06;;;10.00;86.30
43119;BME280;28729;49.838;8.650;2022-09-21T23:02:23;100576.03;;;9.97;86.37
43119;BME280;28729;49.838;8.650;2022-09-21T23:06:27;100582.16;;;9.99;86.82
43119;BME280;28729;49.838;8.650;2022-09-21T23:10:29;100572.81;;;10.00;86.99
43119;BME280;28729;49.838;8.650;2022-09-21T23:14:31;100564.19;;;9.97;86.88
43119;BME280;28729;49.838;8.650;2022-09-21T23:18:33;100563.31;;;9.96;86.75
43119;BME280;28729;49.838;8.650;2022-09-21T23:22:35;100562.25;;;9.97;86.47
43119;BME280;28729;49.838;8.650;2022-09-21T23:26:37;100553.16;;;9.97;86.29
43119;BME280;28729;49.838;8.650;2022-09-21T23:30:39;100552.53;;;9.95;86.10
43119;BME280;28729;49.838;8.650;2022-09-21T23:34:40;100548.13;;;9.94;86.09
43119;BME280;28729;49.838;8.650;2022-09-21T23:38:42;100549.78;;;9.95;86.74
43119;BME280;28729;49.838;8.650;2022-09-21T23:42:44;100549.16;;;9.93;86.43
43119;BME280;28729;49.838;8.650;2022-09-21T23:46:45;100557.66;;;9.91;86.22
43119;BME280;28729;49.838;8.650;2022-09-21T23:50:47;100547.94;;;9.89;86.56
43119;BME280;28729;49.838;8.650;2022-09-21T23:54:48;100548.56;;;9.91;86.17
43119;BME280;28729;49.838;8.650;2022-09-21T23:58:53;100551.53;;;9.89;86.07
